Time;durP1;ratioP1;P1;durP2;ratioP2;P2;SDS_P1;SDS_P2;PMS_P1;PMS_P2;Temp;Humidity;BMP_temperature;BMP_pressure;BME280_temperature;BME280_humidity;BME280_pressure;Samples;Min_cycle;Max_cycle;Signal;HPM_P1;HPM_P2
2022/12/22 03:28:07;;;;;;;;;1.00;1.00;;;;;2.39;96.00;98152.94;4915451;28;108827;-76
2022/12/22 03:30:34;;;;;;;;;1.00;1.00;;;;;2.36;96.32;98151.44;4914431;28;102176;-75
2022/12/22 03:33:01;;;;;;;;;1.00;1.00;;;;;2.28;96.34;98132.72;4913983;28;102190;-75
2022/12/22 03:35:28;;;;;;;;;1.25;1.25;;;;;2.33;96.23;98154.44;4917390;28;102100;-76
2022/12/22 03:37:55;;;;;;;;;2.00;1.00;;;;;2.24;95.39;98147.38;4914089;28;103979;-76
2022/12/22 03:40:22;;;;;;;;;0.75;0.25;;;;;2.33;96.42;98157.09;4914090;28;102082;-75
2022/12/22 03:48:20;;;;;;;;;0.25;0.00;;;;;2.31;96.54;98145.75;4910235;28;108686;-75
2022/12/22 03:50:47;;;;;;;;;1.00;0.00;;;;;2.26;96.03;98137.38;4919415;28;102258;-75
2022/12/22 03:53:14;;;;;;;;;0.00;0.00;;;;;2.27;97.14;98138.22;4913587;28;102335;-75
2022/12/22 03:55:41;;;;;;;;;1.00;1.00;;;;;2.24;96.76;98129.56;4912738;28;102505;-75
2022/12/22 03:58:08;;;;;;;;;0.00;0.00;;;;;2.27;96.96;98133.72;4911011;28;103994;-74
2022/12/22 04:00:35;;;;;;;;;1.00;0.00;;;;;2.25;97.49;98133.06;4917483;28;102065;-76
2022/12/22 04:03:02;;;;;;;;;0.00;0.00;;;;;2.12;96.73;98117.47;4910813;28;102398;-76
2022/12/22 04:05:29;;;;;;;;;1.00;0.25;;;;;2.14;97.01;98128.84;4912918;28;102073;-76
2022/12/22 04:07:56;;;;;;;;;1.00;1.00;;;;;2.14;97.62;98138.66;4905450;28;103801;-76
2022/12/22 04:13:08;;;;;;;;;1.75;1.00;;;;;2.17;98.50;98149.84;4906925;28;102181;-75
2022/12/22 04:15:35;;;;;;;;;1.00;1.00;;;;;2.18;97.55;98140.00;4905774;28;102023;-74
2022/12/22 04:18:02;;;;;;;;;1.00;0.00;;;;;2.17;97.72;98139.19;4888311;28;105013;-75
2022/12/22 04:20:29;;;;;;;;;1.50;1.00;;;;;2.05;98.30;98126.28;4897161;28;102245;-75
2022/12/22 04:22:57;;;;;;;;;0.00;0.00;;;;;2.17;98.17;98146.34;4891688;28;102707;-74
2022/12/22 04:25:25;;;;;;;;;1.50;1.00;;;;;2.18;98.19;98142.69;4880613;28;102026;-74
2022/12/22 04:27:52;;;;;;;;;1.00;0.00;;;;;2.18;98.40;98137.34;4893207;28;103217;-75
2022/12/22 04:30:19;;;;;;;;;1.50;1.00;;;;;2.07;98.17;98124.31;4897226;28;102250;-74
2022/12/22 04:32:46;;;;;;;;;0.25;0.25;;;;;2.18;98.53;98135.53;4896798;28;102097;-74
2022/12/22 04:35:13;;;;;;;;;0.50;0.00;;;;;1.93;98.26;98092.91;4889134;28;102114;-75
2022/12/22 04:37:40;;;;;;;;;1.00;0.00;;;;;2.01;98.38;98100.94;4895732;28;103350;-75
2022/12/22 04:40:08;;;;;;;;;0.00;0.00;;;;;2.21;98.80;98132.53;4885594;28;101936;-75
2022/12/22 04:42:35;;;;;;;;;1.25;0.00;;;;;2.16;98.58;98131.34;4894885;28;102398;-75
2022/12/22 04:45:02;;;;;;;;;0.00;0.00;;;;;1.98;97.91;98096.75;4879657;28;102409;-74
2022/12/22 04:47:29;;;;;;;;;0.00;0.00;;;;;1.96;98.60;98093.41;4893603;28;104009;-74
2022/12/22 04:49:56;;;;;;;;;0.25;0.00;;;;;2.22;98.22;98130.69;4900622;28;102190;-74
2022/12/22 04:52:23;;;;;;;;;0.00;0.00;;;;;2.15;98.89;98127.84;4901080;28;103945;-75
2022/12/22 04:54:50;;;;;;;;;0.00;0.00;;;;;2.01;98.55;98099.13;4896418;28;103392;-74
2022/12/22 04:57:17;;;;;;;;;0.00;0.00;;;;;2.23;98.66;98119.03;4900767;28;103977;-74
2022/12/22 04:59:44;;;;;;;;;2.00;0.00;;;;;2.15;98.48;98105.69;4876871;28;102128;-74
2022/12/22 05:02:11;;;;;;;;;0.75;0.75;;;;;2.13;99.09;98099.66;4892169;28;102125;-74
2022/12/22 05:04:39;;;;;;;;;0.00;0.00;;;;;2.20;98.46;98114.88;4894897;28;102870;-75
2022/12/22 05:07:06;;;;;;;;;0.00;0.00;;;;;1.98;98.44;98082.59;4899454;28;104127;-74
2022/12/22 05:09:33;;;;;;;;;0.25;0.25;;;;;2.25;98.52;98119.72;4888591;28;104024;-74
2022/12/22 05:12:53;;;;;;;;;0.25;0.00;;;;;2.08;98.74;98080.63;4884847;28;102392;-75
2022/12/22 05:14:47;;;;;;;;;1.00;1.00;;;;;2.24;98.65;98118.06;4907400;28;103961;-75
2022/12/22 05:17:14;;;;;;;;;3.00;1.00;;;;;2.03;98.98;98088.28;4910418;28;104017;-75
2022/12/22 05:19:41;;;;;;;;;1.50;1.00;;;;;2.18;98.76;98100.84;4895210;28;102497;-75
2022/12/22 05:22:08;;;;;;;;;1.00;1.00;;;;;2.20;98.80;98106.03;4916254;28;102250;-75
2022/12/22 05:24:35;;;;;;;;;1.00;1.00;;;;;2.20;99.08;98104.22;4918051;28;102258;-75
2022/12/22 05:27:02;;;;;;;;;1.00;1.00;;;;;2.27;98.37;98112.38;4912861;28;105193;-75
2022/12/22 05:29:29;;;;;;;;;1.75;1.00;;;;;2.25;98.62;98098.41;4902456;28;102437;-75
2022/12/22 05:31:56;;;;;;;;;0.50;0.50;;;;;2.21;99.09;98086.34;4912442;28;102386;-74
2022/12/22 05:34:23;;;;;;;;;0.25;0.00;;;;;2.26;99.14;98097.38;4921306;28;102638;-74
2022/12/22 05:36:50;;;;;;;;;1.00;0.75;;;;;2.25;99.19;98098.41;4890801;28;104159;-74
2022/12/22 05:39:18;;;;;;;;;0.75;0.00;;;;;2.10;98.93;98068.00;4909490;28;102052;-74
2022/12/22 05:41:45;;;;;;;;;1.00;0.75;;;;;2.24;99.12;98086.03;4905644;28;102563;-75
2022/12/22 05:44:12;;;;;;;;;1.00;1.00;;;;;2.17;99.12;98069.84;4898842;28;103619;-75
2022/12/22 05:46:39;;;;;;;;;2.00;1.00;;;;;2.25;98.62;98080.53;4912845;28;104098;-75
2022/12/22 05:49:06;;;;;;;;;1.00;1.00;;;;;2.31;98.22;98081.72;4914902;28;101886;-75
2022/12/22 05:51:33;;;;;;;;;3.00;1.00;;;;;2.34;98.90;98084.09;4912801;28;104172;-75
2022/12/22 05:54:00;;;;;;;;;1.50;1.00;;;;;2.35;99.24;98084.88;4918083;28;102589;-75
2022/12/22 05:56:27;;;;;;;;;1.75;1.00;;;;;2.33;98.63;98078.91;4913030;28;104311;-75
2022/12/22 05:58:54;;;;;;;;;1.00;0.00;;;;;2.33;99.61;98069.06;4914576;28;102059;-75
2022/12/22 06:01:21;;;;;;;;;0.00;0.00;;;;;2.29;99.64;98067.72;4914876;28;101989;-75
2022/12/22 06:03:47;;;;;;;;;1.00;0.00;;;;;2.27;98.38;98063.53;4924131;28;101965;-75
2022/12/22 06:06:21;;;;;;;;;0.25;0.25;;;;;2.22;99.07;98072.03;4902262;28;104099;-75
2022/12/22 06:08:48;;;;;;;;;0.00;0.00;;;;;2.20;99.26;98076.69;4925078;28;111064;-75
2022/12/22 06:11:17;;;;;;;;;0.00;0.00;;;;;2.11;98.83;98080.34;4909575;28;103381;-75
2022/12/22 06:13:44;;;;;;;;;0.25;0.00;;;;;2.11;98.91;98085.66;4907042;28;101940;-75
2022/12/22 06:16:11;;;;;;;;;0.00;0.00;;;;;2.05;98.77;98080.97;4894047;28;103923;-75
2022/12/22 06:18:38;;;;;;;;;0.00;0.00;;;;;2.01;98.63;98080.44;4914382;28;103321;-75
2022/12/22 06:21:05;;;;;;;;;1.00;0.00;;;;;1.97;98.04;98080.94;4917721;28;102499;-76
2022/12/22 06:23:32;;;;;;;;;0.25;0.25;;;;;1.93;98.16;98096.41;4908699;28;102469;-76
2022/12/22 06:26:00;;;;;;;;;1.00;0.00;;;;;1.88;97.73;98089.88;4908700;28;104260;-76
2022/12/22 06:28:28;;;;;;;;;0.00;0.00;;;;;1.82;98.61;98091.34;4920466;28;102117;-75
2022/12/22 06:30:55;;;;;;;;;0.50;0.50;;;;;1.77;99.25;98089.16;4907636;28;103514;-76
2022/12/22 06:33:22;;;;;;;;;1.00;0.00;;;;;1.77;98.03;98085.66;4916495;28;102496;-74
2022/12/22 06:35:50;;;;;;;;;3.25;1.00;;;;;1.79;98.32;98084.53;4905116;28;104003;-75
2022/12/22 06:38:26;;;;;;;;;1.00;0.00;;;;;1.77;98.59;98085.66;4910685;28;102367;-75
2022/12/22 06:40:53;;;;;;;;;0.00;0.00;;;;;1.79;99.21;98087.19;4909188;28;106020;-75
2022/12/22 06:43:20;;;;;;;;;0.00;0.00;;;;;1.77;99.21;98081.16;4917419;28;102078;-75
2022/12/22 06:45:47;;;;;;;;;0.00;0.00;;;;;1.82;99.11;98079.84;4908944;28;104278;-75
2022/12/22 06:48:14;;;;;;;;;0.75;0.00;;;;;1.83;99.09;98077.03;4914765;28;102377;-76
2022/12/22 06:50:41;;;;;;;;;0.00;0.00;;;;;1.78;98.74;98071.34;4913857;28;102220;-75
2022/12/22 06:53:09;;;;;;;;;0.00;0.00;;;;;1.86;98.64;98075.88;4918669;28;105767;-76
2022/12/22 06:55:37;;;;;;;;;0.25;0.25;;;;;1.86;98.64;98073.19;4906688;28;107495;-76
2022/12/22 06:58:04;;;;;;;;;0.00;0.00;;;;;1.85;98.71;98080.34;4914183;28;102216;-76
2022/12/22 07:00:31;;;;;;;;;1.00;1.00;;;;;1.85;99.17;98074.22;4900356;28;102310;-76
2022/12/22 07:02:59;;;;;;;;;0.25;0.00;;;;;1.83;98.68;98065.53;4910229;28;110613;-76
2022/12/22 07:05:26;;;;;;;;;0.75;0.75;;;;;1.87;99.52;98069.53;4909118;28;103344;-75
2022/12/22 07:07:53;;;;;;;;;1.00;1.00;;;;;1.82;99.17;98053.19;4914437;28;102186;-75
2022/12/22 07:10:56;;;;;;;;;1.00;0.00;;;;;1.86;99.47;98055.38;4922826;28;102315;-75
2022/12/22 07:13:18;;;;;;;;;0.00;0.00;;;;;1.84;99.38;98051.22;4895769;28;102193;-75
2022/12/22 07:15:48;;;;;;;;;0.00;0.00;;;;;1.85;99.51;98048.38;4910067;28;106149;-76
2022/12/22 07:18:25;;;;;;;;;0.00;0.00;;;;;1.88;99.49;98041.91;4909390;28;102174;-75
2022/12/22 07:20:53;;;;;;;;;0.50;0.50;;;;;1.90;99.61;98050.56;4919824;28;102376;-75
2022/12/22 07:23:20;;;;;;;;;0.00;0.00;;;;;1.94;99.59;98035.91;4918934;28;103123;-75
2022/12/22 07:25:47;;;;;;;;;2.00;0.00;;;;;1.99;99.60;98044.25;4909424;28;104014;-75
2022/12/22 07:28:14;;;;;;;;;1.00;0.00;;;;;2.10;99.39;98041.31;4933980;28;101980;-75
2022/12/22 07:30:48;;;;;;;;;1.25;1.00;;;;;2.17;98.91;98037.00;4920296;28;102329;-76
2022/12/22 07:33:15;;;;;;;;;1.50;1.00;;;;;2.29;99.95;98045.56;4927530;28;102354;-75
2022/12/22 07:35:42;;;;;;;;;0.50;0.25;;;;;2.38;99.42;98042.75;4927774;28;104018;-74
2022/12/22 07:38:09;;;;;;;;;1.00;0.75;;;;;2.47;98.44;98049.78;4910011;28;102026;-74
2022/12/22 07:40:36;;;;;;;;;2.50;1.00;;;;;2.53;98.10;98035.75;4912368;28;102548;-75
2022/12/22 07:43:08;;;;;;;;;2.25;1.50;;;;;2.40;97.34;97995.38;4919771;28;102495;-76
2022/12/22 07:45:35;;;;;;;;;1.50;1.00;;;;;2.41;96.81;97973.03;4910840;28;108571;-75
2022/12/22 07:50:23;;;;;;;;;1.00;0.50;;;;;2.72;96.27;98028.44;4914019;28;102554;-76
2022/12/22 07:51:00;;;;;;;;;2.00;1.00;;;;;2.77;96.79;98012.75;4913501;28;101925;-76
2022/12/22 07:53:27;;;;;;;;;2.00;2.00;;;;;2.81;95.95;98011.44;4917457;28;102059;-75
2022/12/22 07:55:54;;;;;;;;;1.00;1.00;;;;;2.83;95.15;98001.44;4913098;28;103999;-76
2022/12/22 07:58:21;;;;;;;;;1.00;1.00;;;;;2.83;96.09;98001.44;4915609;28;102522;-75
2022/12/22 08:00:48;;;;;;;;;1.00;1.00;;;;;2.83;95.92;98001.44;4910656;28;102208;-77
2022/12/22 08:03:15;;;;;;;;;3.00;3.00;;;;;2.77;94.77;98018.09;4919821;28;102222;-77
2022/12/22 08:05:43;;;;;;;;;2.00;2.00;;;;;2.77;94.52;98008.25;4916097;28;104134;-77
2022/12/22 08:08:10;;;;;;;;;2.25;1.00;;;;;2.82;95.64;98005.09;4891822;28;102103;-76
2022/12/22 08:10:37;;;;;;;;;2.00;1.00;;;;;2.82;95.29;98003.25;4914394;28;102340;-77
2022/12/22 08:13:04;;;;;;;;;0.75;0.75;;;;;2.91;95.59;98014.75;4925300;28;101981;-77
2022/12/22 08:15:31;;;;;;;;;0.50;0.00;;;;;2.92;96.14;98011.09;4924613;28;104097;-76
2022/12/22 08:17:58;;;;;;;;;2.75;2.00;;;;;2.86;95.36;98001.09;4912737;28;102144;-77
2022/12/22 08:20:25;;;;;;;;;2.00;2.00;;;;;2.89;94.80;98016.75;4919779;28;102258;-77
2022/12/22 08:22:52;;;;;;;;;1.00;1.00;;;;;2.92;94.31;98008.44;4924528;28;102085;-77
2022/12/22 08:25:19;;;;;;;;;3.00;2.00;;;;;2.94;94.58;98012.59;4915345;28;104010;-77
2022/12/22 08:27:52;;;;;;;;;1.00;1.00;;;;;3.06;94.42;98007.75;4922638;28;101942;-77
2022/12/22 08:30:19;;;;;;;;;1.00;1.00;;;;;3.12;94.19;98012.41;4915800;28;102109;-77
2022/12/22 08:32:48;;;;;;;;;3.00;1.00;;;;;3.12;93.44;98012.41;4922928;28;102025;-77
2022/12/22 08:35:16;;;;;;;;;2.50;2.25;;;;;3.17;91.99;98015.41;4921756;28;104080;-77
2022/12/22 08:37:45;;;;;;;;;1.00;1.00;;;;;3.21;93.50;98014.06;4913263;28;102350;-76
2022/12/22 08:40:18;;;;;;;;;1.25;1.25;;;;;3.27;93.00;98012.56;4922002;28;102277;-76
2022/12/22 08:42:47;;;;;;;;;3.00;2.50;;;;;3.28;91.83;98016.91;4920159;28;102069;-76
2022/12/22 08:45:14;;;;;;;;;2.00;1.00;;;;;3.32;93.13;98004.88;4921427;28;104013;-76
2022/12/22 08:47:41;;;;;;;;;2.75;1.75;;;;;3.31;92.62;97996.03;4913516;28;102055;-76
2022/12/22 08:50:08;;;;;;;;;2.00;2.00;;;;;3.33;92.44;97999.34;4924856;28;102085;-77
2022/12/22 08:52:35;;;;;;;;;3.50;2.00;;;;;3.39;92.18;98004.00;4913870;28;102414;-77
2022/12/22 08:55:03;;;;;;;;;2.75;2.00;;;;;3.25;91.98;97982.50;4905365;28;104086;-77
2022/12/22 08:57:30;;;;;;;;;2.50;1.25;;;;;3.31;91.16;97995.19;4921311;28;102424;-77
2022/12/22 08:59:57;;;;;;;;;10.25;6.00;;;;;3.31;92.30;97988.00;4918682;28;102371;-77
2022/12/22 09:02:24;;;;;;;;;3.50;3.00;;;;;3.34;92.23;97984.16;4922240;28;102169;-76
2022/12/22 09:04:51;;;;;;;;;2.00;1.00;;;;;3.35;92.95;97992.00;4912291;28;104191;-77
2022/12/22 09:07:18;;;;;;;;;6.00;1.25;;;;;3.27;92.28;97980.50;4933104;28;102060;-77
2022/12/22 09:09:45;;;;;;;;;2.25;2.00;;;;;3.26;91.08;97987.69;4924059;28;102143;-77
2022/12/22 09:12:12;;;;;;;;;3.00;2.00;;;;;3.30;93.42;97994.34;4918206;28;102403;-76
2022/12/22 09:14:39;;;;;;;;;1.50;1.50;;;;;3.32;93.38;97995.03;4915368;28;104045;-76
2022/12/22 09:17:08;;;;;;;;;2.00;1.25;;;;;3.32;94.32;97979.00;4909701;28;101948;-77
2022/12/22 09:19:35;;;;;;;;;5.75;5.00;;;;;3.30;93.98;97972.13;4923146;28;103251;-76
2022/12/22 09:22:02;;;;;;;;;6.25;5.50;;;;;3.25;93.97;97959.28;4923115;28;102298;-77
2022/12/22 09:24:29;;;;;;;;;6.00;5.00;;;;;3.33;93.62;97948.56;4919602;28;104126;-77
2022/12/22 09:26:56;;;;;;;;;2.25;2.25;;;;;3.33;93.15;97945.91;4925227;28;102164;-77
2022/12/22 09:29:23;;;;;;;;;5.00;2.50;;;;;3.35;93.78;97930.56;4905404;28;102106;-77
2022/12/22 09:31:50;;;;;;;;;5.25;3.00;;;;;3.40;94.23;97936.22;4920474;28;102267;-77
2022/12/22 09:34:17;;;;;;;;;1.00;0.00;;;;;3.47;94.19;97931.84;4923505;28;104526;-77
2022/12/22 09:36:45;;;;;;;;;2.00;1.75;;;;;3.62;94.22;97936.47;4909600;28;102347;-77
2022/12/22 09:39:12;;;;;;;;;1.50;1.50;;;;;3.66;93.52;97924.41;4922911;28;102131;-78
2022/12/22 09:41:56;;;;;;;;;5.00;3.00;;;;;3.73;92.43;97917.38;4927386;28;102205;-77
2022/12/22 09:44:27;;;;;;;;;2.00;2.00;;;;;3.89;92.43;97914.59;4925225;28;108797;-77
2022/12/22 09:46:58;;;;;;;;;4.00;2.00;;;;;4.00;92.99;97911.53;4924480;28;102094;-77
2022/12/22 09:49:26;;;;;;;;;3.00;2.00;;;;;4.09;92.27;97897.09;4925048;28;104650;-77
2022/12/22 09:51:59;;;;;;;;;4.50;2.00;;;;;4.13;90.35;97887.72;4925922;28;102857;-77
2022/12/22 09:54:27;;;;;;;;;2.25;2.25;;;;;4.27;90.79;97892.28;4915486;28;104411;-77
2022/12/22 09:56:55;;;;;;;;;1.50;1.00;;;;;4.36;89.32;97893.91;4928615;28;102038;-77
2022/12/22 09:59:26;;;;;;;;;2.50;2.00;;;;;4.48;89.54;97897.81;4920453;28;102146;-77
2022/12/22 10:02:12;;;;;;;;;2.50;2.00;;;;;4.60;89.72;97902.72;4921772;28;102192;-77
2022/12/22 10:05:16;;;;;;;;;2.00;2.00;;;;;4.71;90.04;97891.59;4916331;28;108755;-77
2022/12/22 10:07:43;;;;;;;;;1.25;0.75;;;;;4.74;87.81;97884.00;4925158;28;102288;-77
2022/12/22 10:10:27;;;;;;;;;1.25;1.00;;;;;4.85;88.85;97890.78;4925424;28;102303;-77
2022/12/22 10:12:57;;;;;;;;;4.25;2.25;;;;;4.87;88.94;97884.22;4927626;28;102115;-77
2022/12/22 10:15:25;;;;;;;;;5.00;3.00;;;;;4.88;88.23;97885.88;4903232;28;104334;-77
2022/12/22 10:18:13;;;;;;;;;5.00;3.50;;;;;4.98;89.46;97890.16;4920798;28;102040;-78
2022/12/22 10:20:43;;;;;;;;;5.00;3.00;;;;;5.01;89.10;97893.28;4914068;28;102328;-78
2022/12/22 10:23:25;;;;;;;;;2.75;2.00;;;;;5.05;89.94;97885.72;4923049;28;102011;-77
2022/12/22 10:25:55;;;;;;;;;2.00;2.00;;;;;5.10;87.46;97877.97;4922748;28;108676;-78
2022/12/22 10:28:47;;;;;;;;;4.25;2.00;;;;;5.13;88.18;97862.38;4920771;28;102262;-77
2022/12/22 10:31:20;;;;;;;;;2.00;2.00;;;;;5.21;88.32;97864.13;4911949;28;102192;-77
2022/12/22 10:33:51;;;;;;;;;1.50;1.50;;;;;5.21;86.33;97854.22;4924454;28;102266;-78
2022/12/22 10:36:29;;;;;;;;;1.50;0.50;;;;;5.26;87.91;97857.19;4912965;28;103809;-77
2022/12/22 10:39:06;;;;;;;;;1.00;1.00;;;;;5.29;87.97;97859.50;4927305;28;102306;-78
2022/12/22 10:41:43;;;;;;;;;2.25;1.00;;;;;5.32;89.01;97851.06;4914742;28;102000;-78
2022/12/22 10:44:15;;;;;;;;;2.50;2.25;;;;;5.35;87.75;97860.59;4923801;28;102051;-78
2022/12/22 10:46:47;;;;;;;;;3.75;2.00;;;;;5.36;86.01;97851.50;4915108;28;108726;-74
2022/12/22 10:49:20;;;;;;;;;3.00;3.00;;;;;5.38;87.79;97853.00;4913574;28;102299;-74
2022/12/22 10:51:54;;;;;;;;;2.00;2.00;;;;;5.40;85.65;97847.47;4913984;28;101972;-74
2022/12/22 10:54:29;;;;;;;;;3.00;2.00;;;;;5.48;87.68;97847.38;4912916;28;102470;-72
2022/12/22 10:57:23;;;;;;;;;0.00;0.00;;;;;5.43;86.73;97838.22;4914038;28;104196;-74
2022/12/22 10:59:53;;;;;;;;;1.50;1.00;;;;;5.42;86.97;97829.34;4912376;28;102111;-72
2022/12/22 11:02:21;;;;;;;;;3.50;2.00;;;;;5.47;87.14;97820.72;4907375;28;102144;-72
2022/12/22 11:04:49;;;;;;;;;4.50;3.25;;;;;5.52;86.20;97818.31;4910627;28;102349;-72
2022/12/22 11:07:17;;;;;;;;;5.25;2.25;;;;;5.60;86.35;97815.53;4920454;28;104115;-72
2022/12/22 11:09:44;;;;;;;;;1.75;1.00;;;;;5.69;85.87;97817.91;4910343;28;102604;-73
2022/12/22 11:12:32;;;;;;;;;1.50;1.50;;;;;5.78;84.86;97815.94;4923466;28;102260;-73
2022/12/22 11:15:46;;;;;;;;;2.00;2.00;;;;;5.83;85.11;97816.19;4934892;28;102114;-73
2022/12/22 11:18:33;;;;;;;;;0.00;0.00;;;;;5.92;87.21;97808.88;4905992;28;108546;-74
2022/12/22 11:21:12;;;;;;;;;1.50;1.50;;;;;5.92;83.54;97804.34;4933886;28;102854;-73
2022/12/22 11:23:53;;;;;;;;;3.00;1.75;;;;;6.02;84.37;97796.81;4927796;28;102264;-73
2022/12/22 11:26:47;;;;;;;;;1.00;1.00;;;;;6.14;85.68;97800.66;4934636;28;102112;-73
2022/12/22 11:29:22;;;;;;;;;3.00;2.00;;;;;6.23;84.24;97795.97;4922096;28;109994;-74
2022/12/22 11:32:04;;;;;;;;;9.25;7.25;;;;;6.10;84.70;97794.00;4932954;28;102075;-72
2022/12/22 11:34:31;;;;;;;;;8.25;6.25;;;;;6.03;83.02;97786.91;4927888;28;101968;-73
2022/12/22 11:37:27;;;;;;;;;3.25;3.25;;;;;6.03;85.96;97790.44;4906611;28;102331;-72
2022/12/22 11:40:03;;;;;;;;;3.00;3.00;;;;;6.02;86.06;97785.25;4908275;28;108805;-72
2022/12/22 11:43:00;;;;;;;;;2.00;2.00;;;;;6.01;86.56;97791.63;4913612;28;102301;-72
2022/12/22 11:45:51;;;;;;;;;2.00;2.00;;;;;5.97;86.27;97780.47;4915518;28;102126;-72
2022/12/22 11:48:52;;;;;;;;;1.00;0.75;;;;;5.97;88.10;97776.94;4921091;28;103237;-72
2022/12/22 11:51:37;;;;;;;;;1.25;1.25;;;;;5.90;86.02;97773.38;4911021;28;108457;-72
2022/12/22 11:54:31;;;;;;;;;1.75;1.00;;;;;5.84;86.43;97769.56;4920465;28;102409;-73
2022/12/22 11:57:13;;;;;;;;;2.00;1.50;;;;;5.73;85.82;97770.06;4900822;28;102881;-73
2022/12/22 11:59:49;;;;;;;;;1.50;1.50;;;;;5.65;86.38;97773.72;4920908;28;102849;-72
2022/12/22 12:02:29;;;;;;;;;0.75;0.75;;;;;5.62;86.00;97771.41;4910126;28;108673;-72
2022/12/22 12:05:39;;;;;;;;;3.00;2.00;;;;;5.64;87.25;97768.53;4915349;28;101906;-72
2022/12/22 12:08:05;;;;;;;;;2.00;1.50;;;;;5.66;87.04;97751.25;4912698;28;102148;-72
2022/12/22 12:10:47;;;;;;;;;2.00;1.00;;;;;5.70;87.96;97755.19;4929763;28;102081;-73
2022/12/22 12:13:43;;;;;;;;;2.00;2.00;;;;;5.71;86.14;97754.19;4930869;28;108751;-72
2022/12/22 12:16:28;;;;;;;;;1.75;1.00;;;;;5.79;87.26;97755.91;4927866;28;101924;-72
2022/12/22 12:19:22;;;;;;;;;3.00;2.25;;;;;5.88;87.30;97749.41;4921819;28;102270;-73
2022/12/22 12:22:07;;;;;;;;;3.00;2.50;;;;;5.84;86.64;97748.13;4918213;28;102888;-72
2022/12/22 12:24:39;;;;;;;;;2.00;2.00;;;;;5.87;86.63;97753.13;4915733;28;104164;-73
2022/12/22 12:27:36;;;;;;;;;4.50;3.00;;;;;5.85;86.36;97750.59;4914293;28;102426;-73
2022/12/22 12:30:24;;;;;;;;;3.00;2.00;;;;;5.72;85.60;97736.22;4915284;28;101843;-72
2022/12/22 12:33:17;;;;;;;;;3.00;2.75;;;;;5.68;87.31;97725.06;4904694;28;102359;-72
2022/12/22 12:35:47;;;;;;;;;2.75;2.00;;;;;5.70;87.69;97736.44;4906692;28;108143;-73
2022/12/22 12:38:30;;;;;;;;;3.25;3.25;;;;;5.66;87.67;97731.63;4915304;28;102135;-73
2022/12/22 12:41:27;;;;;;;;;2.25;2.00;;;;;5.65;87.94;97736.16;4909773;28;102314;-72
2022/12/22 12:43:56;;;;;;;;;2.00;1.50;;;;;5.64;88.19;97730.97;4921916;28;102337;-72
2022/12/22 12:46:39;;;;;;;;;3.25;2.75;;;;;5.55;86.78;97737.50;4917011;28;104257;-73
2022/12/22 12:49:35;;;;;;;;;3.00;1.00;;;;;5.48;88.27;97734.75;4928054;28;102188;-73
2022/12/22 12:52:03;;;;;;;;;1.25;1.25;;;;;5.36;89.47;97726.38;4918877;28;102282;-72
2022/12/22 12:54:46;;;;;;;;;1.00;1.00;;;;;5.33;88.50;97733.97;4924827;28;102059;-72
2022/12/22 12:57:29;;;;;;;;;2.50;2.50;;;;;5.30;90.56;97735.19;4908659;28;108891;-73
2022/12/22 12:59:59;;;;;;;;;5.00;2.75;;;;;5.28;88.03;97739.88;4921471;28;102337;-73
2022/12/22 13:02:26;;;;;;;;;5.00;3.00;;;;;5.31;85.43;97739.50;4918690;28;102212;-73
2022/12/22 13:05:13;;;;;;;;;5.00;2.75;;;;;5.42;86.85;97745.41;4925676;28;102039;-72
2022/12/22 13:08:11;;;;;;;;;1.75;1.75;;;;;5.53;87.12;97747.59;4918368;28;108994;-73
2022/12/22 13:10:51;;;;;;;;;6.75;3.00;;;;;5.46;87.01;97717.19;4920189;28;101899;-72
2022/12/22 13:13:24;;;;;;;;;1.00;1.00;;;;;5.65;88.01;97738.00;4917474;28;102074;-73
2022/12/22 13:16:00;;;;;;;;;4.00;3.00;;;;;5.66;88.72;97731.63;4911510;28;102276;-74
2022/12/22 13:18:28;;;;;;;;;4.00;2.00;;;;;5.63;87.62;97729.34;4911072;28;104036;-73
2022/12/22 13:21:07;;;;;;;;;2.00;2.00;;;;;5.59;89.04;97738.78;4912322;28;102341;-72
2022/12/22 13:23:54;;;;;;;;;4.50;2.50;;;;;5.52;89.08;97724.47;4909838;28;102783;-73
2022/12/22 13:26:43;;;;;;;;;5.00;2.00;;;;;5.43;88.72;97712.22;4911369;28;102932;-73
2022/12/22 13:29:38;;;;;;;;;2.00;2.00;;;;;5.37;90.20;97729.88;4920170;28;108650;-75
2022/12/22 13:32:19;;;;;;;;;1.25;1.00;;;;;5.31;90.36;97726.09;4915962;28;102310;-74
2022/12/22 13:34:59;;;;;;;;;1.00;1.00;;;;;5.28;91.76;97726.50;4911597;28;101942;-71
2022/12/22 13:37:48;;;;;;;;;2.00;2.00;;;;;5.23;91.42;97730.75;4916006;28;102053;-72
2022/12/22 13:40:24;;;;;;;;;2.50;1.25;;;;;5.17;90.76;97724.31;4919160;28;104055;-72
2022/12/22 13:42:53;;;;;;;;;5.00;2.00;;;;;5.10;90.22;97712.66;4915416;28;102142;-73
2022/12/22 13:45:35;;;;;;;;;4.25;3.00;;;;;5.10;90.88;97726.06;4918795;28;102201;-73
2022/12/22 13:48:08;;;;;;;;;3.00;2.50;;;;;5.10;91.01;97728.75;4891359;28;102111;-73
2022/12/22 13:50:41;;;;;;;;;3.00;3.00;;;;;5.05;91.03;97711.56;4921425;28;104066;-72
2022/12/22 13:53:15;;;;;;;;;2.75;2.00;;;;;5.09;91.10;97716.38;4919921;28;102255;-73
2022/12/22 13:56:06;;;;;;;;;1.00;1.00;;;;;5.02;91.53;97704.75;4914721;28;102327;-74
2022/12/22 13:58:38;;;;;;;;;4.25;1.00;;;;;5.06;91.79;97706.03;4908248;28;110981;-74
2022/12/22 14:01:10;;;;;;;;;2.00;2.00;;;;;5.11;92.64;97710.81;4914459;28;104365;-74
2022/12/22 14:03:44;;;;;;;;;1.75;1.75;;;;;5.09;91.99;97700.28;4911579;28;102168;-74
2022/12/22 14:06:32;;;;;;;;;2.00;1.25;;;;;5.02;92.61;97690.53;4916758;28;102473;-74
2022/12/22 14:09:18;;;;;;;;;2.75;1.00;;;;;4.99;92.65;97693.59;4915871;28;101957;-73
2022/12/22 14:11:47;;;;;;;;;3.25;2.00;;;;;4.90;93.54;97696.38;4919059;28;108787;-73
2022/12/22 14:14:28;;;;;;;;;2.25;1.00;;;;;4.88;93.89;97694.91;4897610;28;102594;-72
2022/12/22 14:16:59;;;;;;;;;3.00;3.00;;;;;4.77;92.83;97687.34;4918958;28;102279;-74
2022/12/22 14:19:32;;;;;;;;;6.00;4.00;;;;;4.76;94.07;97688.38;4915852;28;102366;-72
2022/12/22 14:22:07;;;;;;;;;2.75;2.75;;;;;4.65;94.51;97670.09;4912592;28;104074;-73
2022/12/22 14:24:42;;;;;;;;;5.25;3.00;;;;;4.69;94.82;97684.75;4911655;28;102277;-74
2022/12/22 14:27:22;;;;;;;;;1.00;1.00;;;;;4.66;94.76;97682.47;4917956;28;109471;-77
2022/12/22 14:29:49;;;;;;;;;1.25;1.25;;;;;4.63;95.20;97682.84;4923308;28;102192;-77
2022/12/22 14:32:56;;;;;;;;;4.00;2.25;;;;;4.50;94.24;97689.66;4898086;28;103866;-77
2022/12/22 14:35:29;;;;;;;;;3.00;3.00;;;;;4.47;94.98;97683.84;4837673;28;102947;-77
2022/12/22 14:38:05;;;;;;;;;1.00;1.00;;;;;4.44;95.37;97687.75;4896056;28;102213;-78
2022/12/22 14:40:41;;;;;;;;;3.75;1.00;;;;;4.38;94.63;97683.13;4914481;28;102038;-77
2022/12/22 14:43:17;;;;;;;;;5.00;5.00;;;;;4.26;94.26;97686.44;4918534;28;104038;-77
2022/12/22 14:45:47;;;;;;;;;6.00;5.00;;;;;4.25;94.67;97682.09;4926201;28;104187;-77
2022/12/22 14:48:31;;;;;;;;;6.75;5.50;;;;;4.21;94.82;97684.31;4914510;28;102058;-72
2022/12/22 14:51:00;;;;;;;;;4.00;3.75;;;;;4.18;96.04;97679.34;4913547;28;102102;-79
2022/12/22 14:53:43;;;;;;;;;1.75;1.75;;;;;4.11;95.53;97678.38;4917494;28;104031;-78
2022/12/22 14:56:14;;;;;;;;;6.00;5.00;;;;;4.02;95.40;97676.81;4917331;28;102005;-77
2022/12/22 14:58:43;;;;;;;;;5.25;2.25;;;;;3.97;96.08;97677.34;4918693;28;102007;-75
2022/12/22 15:01:26;;;;;;;;;4.25;3.00;;;;;3.91;96.71;97670.09;4922921;28;102340;-77
2022/12/22 15:03:59;;;;;;;;;13.00;10.50;;;;;3.76;94.91;97673.72;4910952;28;108667;-77
2022/12/22 15:06:26;;;;;;;;;15.75;13.00;;;;;3.67;95.10;97682.84;4909526;28;102243;-78
2022/12/22 15:09:10;;;;;;;;;30.25;25.50;;;;;3.54;94.78;97678.09;4904936;28;102361;-76
2022/12/22 15:11:45;;;;;;;;;23.50;17.50;;;;;3.44;94.44;97682.84;4925742;28;102156;-79
2022/12/22 15:14:16;;;;;;;;;30.75;25.50;;;;;3.37;95.75;97685.41;4914571;28;107442;-76
2022/12/22 15:16:44;;;;;;;;;20.25;19.00;;;;;3.41;96.81;97676.03;4914568;28;102174;-76
2022/12/22 15:19:15;;;;;;;;;27.00;20.25;;;;;3.34;97.02;97675.06;4916626;28;102597;-77
2022/12/22 15:21:42;;;;;;;;;22.75;18.75;;;;;3.23;95.58;97667.47;4913167;28;101955;-77
2022/12/22 15:24:15;;;;;;;;;26.25;23.25;;;;;3.19;95.83;97687.53;4924337;28;104035;-77
2022/12/22 15:26:43;;;;;;;;;24.25;19.00;;;;;3.13;96.76;97677.56;4892805;28;103146;-76
2022/12/22 15:29:10;;;;;;;;;24.00;21.50;;;;;3.10;97.01;97683.25;4927689;28;102380;-76
2022/12/22 15:31:39;;;;;;;;;23.00;21.50;;;;;3.08;96.73;97680.75;4924445;28;102046;-77
2022/12/22 15:34:15;;;;;;;;;21.00;15.00;;;;;2.89;97.65;97626.97;4921721;28;104005;-77